AEE082 RJAA-RJBB
Flight info
| Callsign | AEE082 |
|---|---|
| Flight time | 0h 56m |
| Altitude | 36000 |
| Route | PIGOK Y50 ELNIS Y564 IBENO Y56 TOHME Y54 KOHWA Y544 DUBKA |
| Aircraft | A20N/M-SDE2E3FGHIRWXY/LB1 |
Departure
| Time | 2026-05-06 20:00 |
|---|---|
| Airport | Narita International Airport (RJAA) |
Arrival
| Time | 2026-05-06 20:56 |
|---|---|
| Airport | Kansai International Airport (RJBB) |
| Time | Latitude | Longitude | Altitude | Speed | Heading |
|---|---|---|---|---|---|
| 2026-05-06 19:30 | 35.76914 | 140.39269 | 144 ft | 0 kts | 277° |
| 2026-05-06 19:47 | 35.76911 | 140.39292 | 144 ft | 4 kts | 278° |
| 2026-05-06 19:47 | 35.76907 | 140.39325 | 144 ft | 4 kts | 279° |
| 2026-05-06 19:48 | 35.76903 | 140.39357 | 144 ft | 4 kts | 278° |
| 2026-05-06 19:48 | 35.76900 | 140.39390 | 144 ft | 4 kts | 269° |
| 2026-05-06 19:48 | 35.76905 | 140.39419 | 144 ft | 3 kts | 216° |
| 2026-05-06 19:48 | 35.76908 | 140.39422 | 144 ft | 0 kts | 204° |
| 2026-05-06 19:51 | 35.76907 | 140.39422 | 144 ft | 1 kts | 204° |
| 2026-05-06 19:51 | 35.76885 | 140.39410 | 144 ft | 7 kts | 204° |
| 2026-05-06 19:52 | 35.76819 | 140.39374 | 143 ft | 13 kts | 204° |
| 2026-05-06 19:52 | 35.76720 | 140.39318 | 144 ft | 18 kts | 205° |
| 2026-05-06 19:52 | 35.76593 | 140.39248 | 144 ft | 22 kts | 204° |
| 2026-05-06 19:52 | 35.76443 | 140.39165 | 144 ft | 25 kts | 204° |
| 2026-05-06 19:53 | 35.76274 | 140.39071 | 144 ft | 28 kts | 204° |
| 2026-05-06 19:53 | 35.76099 | 140.38974 | 144 ft | 28 kts | 204° |
| 2026-05-06 19:53 | 35.75922 | 140.38875 | 144 ft | 27 kts | 204° |
| 2026-05-06 19:53 | 35.75766 | 140.38790 | 144 ft | 22 kts | 207° |
| 2026-05-06 19:54 | 35.75693 | 140.38636 | 144 ft | 20 kts | 277° |
| 2026-05-06 19:54 | 35.75755 | 140.38539 | 144 ft | 15 kts | 315° |
| 2026-05-06 19:54 | 35.75741 | 140.38438 | 144 ft | 13 kts | 243° |
| 2026-05-06 19:54 | 35.75723 | 140.38333 | 144 ft | 13 kts | 297° |
| 2026-05-06 19:55 | 35.75802 | 140.38268 | 144 ft | 16 kts | 328° |
| 2026-05-06 19:55 | 35.75921 | 140.38182 | 144 ft | 24 kts | 329° |
| 2026-05-06 19:55 | 35.76086 | 140.38063 | 144 ft | 31 kts | 330° |
| 2026-05-06 19:55 | 35.76284 | 140.37920 | 143 ft | 33 kts | 330° |
| 2026-05-06 19:56 | 35.76494 | 140.37770 | 143 ft | 36 kts | 330° |
| 2026-05-06 19:56 | 35.76698 | 140.37619 | 143 ft | 36 kts | 328° |
| 2026-05-06 19:56 | 35.76925 | 140.37456 | 143 ft | 39 kts | 329° |
| 2026-05-06 19:56 | 35.77161 | 140.37288 | 142 ft | 38 kts | 330° |
| 2026-05-06 19:57 | 35.77352 | 140.37150 | 143 ft | 32 kts | 329° |
| 2026-05-06 19:57 | 35.77493 | 140.37021 | 143 ft | 19 kts | 289° |
| 2026-05-06 19:57 | 35.77488 | 140.36973 | 143 ft | 0 kts | 242° |
| 2026-05-06 19:58 | 35.77485 | 140.36967 | 143 ft | 3 kts | 242° |
| 2026-05-06 19:58 | 35.77467 | 140.36923 | 143 ft | 9 kts | 242° |
| 2026-05-06 19:58 | 35.77411 | 140.36856 | 143 ft | 13 kts | 192° |
| 2026-05-06 19:58 | 35.77352 | 140.36894 | 142 ft | 10 kts | 161° |
| 2026-05-06 19:59 | 35.77321 | 140.36916 | 142 ft | 0 kts | 149° |
| 2026-05-06 19:59 | 35.77308 | 140.36925 | 141 ft | 11 kts | 149° |
| 2026-05-06 19:59 | 35.77074 | 140.37094 | 141 ft | 72 kts | 149° |
| 2026-05-06 19:59 | 35.76471 | 140.37531 | 145 ft | 127 kts | 149° |
| 2026-05-06 20:00 | 35.75588 | 140.38168 | 151 ft | 167 kts | 150° |
| 2026-05-06 20:00 | 35.74585 | 140.38858 | 635 ft | 169 kts | 152° |
| 2026-05-06 20:00 | 35.73534 | 140.39572 | 1201 ft | 175 kts | 152° |
| 2026-05-06 20:00 | 35.72514 | 140.40279 | 1776 ft | 178 kts | 152° |
| 2026-05-06 20:01 | 35.71426 | 140.41059 | 2290 ft | 187 kts | 152° |
| 2026-05-06 20:01 | 35.70253 | 140.41943 | 2615 ft | 209 kts | 151° |
| 2026-05-06 20:01 | 35.68952 | 140.42918 | 3017 ft | 233 kts | 152° |
| 2026-05-06 20:01 | 35.67477 | 140.44005 | 3608 ft | 255 kts | 153° |
| 2026-05-06 20:02 | 35.65946 | 140.45120 | 4536 ft | 261 kts | 153° |
| 2026-05-06 20:02 | 35.64376 | 140.46258 | 5574 ft | 265 kts | 153° |
| 2026-05-06 20:02 | 35.62764 | 140.47421 | 6528 ft | 271 kts | 153° |
| 2026-05-06 20:02 | 35.61121 | 140.48604 | 7433 ft | 277 kts | 153° |
| 2026-05-06 20:03 | 35.59444 | 140.49809 | 8385 ft | 282 kts | 153° |
| 2026-05-06 20:03 | 35.57733 | 140.51038 | 9317 ft | 288 kts | 153° |
| 2026-05-06 20:03 | 35.55989 | 140.52291 | 10208 ft | 294 kts | 153° |
| 2026-05-06 20:03 | 35.54156 | 140.53602 | 10682 ft | 316 kts | 153° |
| 2026-05-06 20:04 | 35.52155 | 140.55030 | 11021 ft | 340 kts | 153° |
| 2026-05-06 20:04 | 35.50103 | 140.56502 | 11666 ft | 350 kts | 153° |
| 2026-05-06 20:04 | 35.47959 | 140.57947 | 12506 ft | 352 kts | 161° |
| 2026-05-06 20:04 | 35.45584 | 140.58601 | 13308 ft | 350 kts | 181° |
| 2026-05-06 20:05 | 35.43193 | 140.58204 | 14070 ft | 348 kts | 201° |
| 2026-05-06 20:05 | 35.41075 | 140.56826 | 14837 ft | 344 kts | 221° |
| 2026-05-06 20:05 | 35.39481 | 140.54687 | 15625 ft | 340 kts | 239° |
| 2026-05-06 20:05 | 35.38272 | 140.52188 | 16422 ft | 341 kts | 241° |
| 2026-05-06 20:06 | 35.37075 | 140.49676 | 17207 ft | 343 kts | 242° |
| 2026-05-06 20:06 | 35.35980 | 140.47086 | 17983 ft | 342 kts | 248° |
| 2026-05-06 20:06 | 35.35219 | 140.44323 | 18672 ft | 343 kts | 256° |
| 2026-05-06 20:06 | 35.34812 | 140.41448 | 19280 ft | 346 kts | 264° |
| 2026-05-06 20:07 | 35.34631 | 140.38499 | 19877 ft | 349 kts | 264° |
| 2026-05-06 20:07 | 35.34440 | 140.35521 | 20468 ft | 352 kts | 264° |
| 2026-05-06 20:07 | 35.34240 | 140.32528 | 21050 ft | 355 kts | 263° |
| 2026-05-06 20:07 | 35.34035 | 140.29491 | 21646 ft | 359 kts | 263° |
| 2026-05-06 20:08 | 35.33826 | 140.26429 | 22216 ft | 362 kts | 263° |
| 2026-05-06 20:08 | 35.33615 | 140.23346 | 22797 ft | 365 kts | 263° |
| 2026-05-06 20:08 | 35.33401 | 140.20228 | 23379 ft | 369 kts | 263° |
| 2026-05-06 20:08 | 35.33184 | 140.17085 | 23883 ft | 372 kts | 263° |
| 2026-05-06 20:09 | 35.33039 | 140.14985 | 24197 ft | 375 kts | 263° |
| 2026-05-06 20:09 | 35.32942 | 140.13595 | 24401 ft | 376 kts | 263° |
| 2026-05-06 20:09 | 35.32719 | 140.10384 | 24840 ft | 380 kts | 263° |
| 2026-05-06 20:10 | 35.32496 | 140.07187 | 25292 ft | 383 kts | 263° |
| 2026-05-06 20:10 | 35.32268 | 140.03921 | 25741 ft | 387 kts | 264° |
| 2026-05-06 20:10 | 35.32037 | 140.00625 | 26169 ft | 390 kts | 264° |
| 2026-05-06 20:10 | 35.31801 | 139.97308 | 26598 ft | 393 kts | 263° |
| 2026-05-06 20:11 | 35.31390 | 139.93994 | 27018 ft | 396 kts | 257° |
| 2026-05-06 20:11 | 35.30691 | 139.90726 | 27453 ft | 398 kts | 252° |
| 2026-05-06 20:11 | 35.29728 | 139.87535 | 27913 ft | 400 kts | 249° |
| 2026-05-06 20:11 | 35.28712 | 139.84354 | 28373 ft | 402 kts | 249° |
| 2026-05-06 20:12 | 35.27705 | 139.81167 | 28832 ft | 403 kts | 250° |
| 2026-05-06 20:12 | 35.26697 | 139.77974 | 29313 ft | 403 kts | 250° |
| 2026-05-06 20:12 | 35.25682 | 139.74760 | 29798 ft | 404 kts | 250° |
| 2026-05-06 20:12 | 35.24670 | 139.71562 | 30275 ft | 404 kts | 250° |
| 2026-05-06 20:13 | 35.23652 | 139.68350 | 30684 ft | 404 kts | 250° |
| 2026-05-06 20:13 | 35.22633 | 139.65140 | 31114 ft | 404 kts | 250° |
| 2026-05-06 20:13 | 35.21617 | 139.61942 | 31546 ft | 404 kts | 250° |
| 2026-05-06 20:13 | 35.20597 | 139.58737 | 31981 ft | 403 kts | 250° |
| 2026-05-06 20:14 | 35.19582 | 139.55548 | 32427 ft | 402 kts | 250° |
| 2026-05-06 20:14 | 35.18708 | 139.52307 | 32878 ft | 400 kts | 255° |
| 2026-05-06 20:14 | 35.18097 | 139.48999 | 33341 ft | 398 kts | 260° |
| 2026-05-06 20:14 | 35.17743 | 139.45649 | 33812 ft | 396 kts | 264° |
| 2026-05-06 20:15 | 35.17591 | 139.42311 | 34255 ft | 393 kts | 266° |
| 2026-05-06 20:15 | 35.17447 | 139.38985 | 34672 ft | 390 kts | 265° |
| 2026-05-06 20:15 | 35.17296 | 139.35679 | 35094 ft | 387 kts | 265° |
| 2026-05-06 20:15 | 35.17146 | 139.32460 | 35511 ft | 383 kts | 265° |
| 2026-05-06 20:16 | 35.16994 | 139.29221 | 35840 ft | 382 kts | 265° |
| 2026-05-06 20:16 | 35.16840 | 139.25967 | 35972 ft | 386 kts | 265° |
| 2026-05-06 20:16 | 35.16523 | 139.19339 | 36085 ft | 396 kts | 265° |
| 2026-05-06 20:17 | 35.16195 | 139.12510 | 36083 ft | 408 kts | 265° |
| 2026-05-06 20:17 | 35.15859 | 139.05566 | 36078 ft | 410 kts | 265° |
| 2026-05-06 20:18 | 35.15517 | 138.98613 | 36080 ft | 410 kts | 265° |
| 2026-05-06 20:18 | 35.15171 | 138.91646 | 36082 ft | 412 kts | 265° |
| 2026-05-06 20:19 | 35.14819 | 138.84660 | 36082 ft | 413 kts | 265° |
| 2026-05-06 20:19 | 35.14461 | 138.77631 | 36084 ft | 415 kts | 265° |
| 2026-05-06 20:20 | 35.14099 | 138.70593 | 36090 ft | 416 kts | 265° |
| 2026-05-06 20:20 | 35.13732 | 138.63534 | 36087 ft | 417 kts | 265° |
| 2026-05-06 20:21 | 35.13360 | 138.56457 | 36084 ft | 418 kts | 265° |
| 2026-05-06 20:21 | 35.12982 | 138.49368 | 36076 ft | 419 kts | 265° |
| 2026-05-06 20:22 | 35.12571 | 138.42251 | 36089 ft | 420 kts | 263° |
| 2026-05-06 20:22 | 35.11462 | 138.35306 | 36071 ft | 421 kts | 254° |
| 2026-05-06 20:23 | 35.09540 | 138.28536 | 36069 ft | 422 kts | 251° |
| 2026-05-06 20:23 | 35.07546 | 138.21777 | 36072 ft | 424 kts | 251° |
| 2026-05-06 20:24 | 35.05543 | 138.14999 | 36063 ft | 425 kts | 251° |
| 2026-05-06 20:24 | 35.03531 | 138.08219 | 36073 ft | 426 kts | 250° |
| 2026-05-06 20:25 | 35.01509 | 138.01423 | 36072 ft | 426 kts | 250° |
| 2026-05-06 20:25 | 34.99483 | 137.94632 | 36080 ft | 426 kts | 250° |
| 2026-05-06 20:26 | 34.97456 | 137.87848 | 36079 ft | 426 kts | 250° |
| 2026-05-06 20:26 | 34.95423 | 137.81065 | 36072 ft | 426 kts | 250° |
| 2026-05-06 20:27 | 34.93380 | 137.74264 | 36072 ft | 427 kts | 250° |
| 2026-05-06 20:27 | 34.91336 | 137.67473 | 36070 ft | 427 kts | 250° |
| 2026-05-06 20:28 | 34.89298 | 137.60670 | 36061 ft | 427 kts | 250° |
| 2026-05-06 20:28 | 34.87261 | 137.53866 | 36055 ft | 428 kts | 250° |
| 2026-05-06 20:29 | 34.85211 | 137.47041 | 36052 ft | 429 kts | 250° |
| 2026-05-06 20:29 | 34.83243 | 137.40224 | 36047 ft | 430 kts | 251° |
| 2026-05-06 20:30 | 34.80303 | 137.29878 | 36049 ft | 432 kts | 251° |
| 2026-05-06 20:31 | 34.78321 | 137.22973 | 36050 ft | 433 kts | 251° |
| 2026-05-06 20:31 | 34.76650 | 137.17173 | 36050 ft | 434 kts | 251° |
| 2026-05-06 20:32 | 34.74325 | 137.09123 | 36049 ft | 435 kts | 251° |
| 2026-05-06 20:32 | 34.72640 | 137.03302 | 36049 ft | 436 kts | 251° |
| 2026-05-06 20:33 | 34.70580 | 136.96365 | 36050 ft | 437 kts | 248° |
| 2026-05-06 20:33 | 34.67900 | 136.89744 | 36059 ft | 437 kts | 243° |
| 2026-05-06 20:34 | 34.65129 | 136.83219 | 36072 ft | 437 kts | 243° |
| 2026-05-06 20:34 | 34.62378 | 136.76736 | 35888 ft | 425 kts | 243° |
| 2026-05-06 20:34 | 34.61019 | 136.73541 | 35010 ft | 430 kts | 243° |
| 2026-05-06 20:35 | 34.59622 | 136.70257 | 33578 ft | 448 kts | 243° |
| 2026-05-06 20:35 | 34.58179 | 136.66869 | 32425 ft | 458 kts | 243° |
| 2026-05-06 20:35 | 34.56705 | 136.63413 | 31610 ft | 458 kts | 243° |
| 2026-05-06 20:35 | 34.55245 | 136.59996 | 31078 ft | 453 kts | 243° |
| 2026-05-06 20:36 | 34.53806 | 136.56631 | 30575 ft | 448 kts | 243° |
| 2026-05-06 20:36 | 34.52373 | 136.53284 | 29950 ft | 445 kts | 243° |
| 2026-05-06 20:36 | 34.50953 | 136.49969 | 29335 ft | 440 kts | 243° |
| 2026-05-06 20:36 | 34.49549 | 136.46695 | 28731 ft | 436 kts | 243° |
| 2026-05-06 20:37 | 34.48161 | 136.43460 | 28140 ft | 431 kts | 243° |
| 2026-05-06 20:37 | 34.46781 | 136.40248 | 27550 ft | 427 kts | 243° |
| 2026-05-06 20:37 | 34.45417 | 136.37075 | 26963 ft | 423 kts | 243° |
| 2026-05-06 20:37 | 34.44056 | 136.33915 | 26373 ft | 420 kts | 243° |
| 2026-05-06 20:38 | 34.42712 | 136.30795 | 25781 ft | 417 kts | 243° |
| 2026-05-06 20:38 | 34.41376 | 136.27695 | 25222 ft | 414 kts | 243° |
| 2026-05-06 20:38 | 34.40043 | 136.24606 | 24635 ft | 411 kts | 243° |
| 2026-05-06 20:38 | 34.38721 | 136.21546 | 24061 ft | 409 kts | 243° |
| 2026-05-06 20:39 | 34.37405 | 136.18500 | 23435 ft | 407 kts | 243° |
| 2026-05-06 20:39 | 34.36116 | 136.15489 | 22881 ft | 402 kts | 245° |
| 2026-05-06 20:39 | 34.35071 | 136.12370 | 22309 ft | 396 kts | 252° |
| 2026-05-06 20:39 | 34.34362 | 136.09166 | 21662 ft | 394 kts | 258° |
| 2026-05-06 20:40 | 34.33797 | 136.05939 | 21135 ft | 390 kts | 258° |
| 2026-05-06 20:40 | 34.33232 | 136.02754 | 20579 ft | 386 kts | 258° |
| 2026-05-06 20:40 | 34.32666 | 135.99593 | 19988 ft | 384 kts | 258° |
| 2026-05-06 20:40 | 34.32097 | 135.96440 | 19449 ft | 381 kts | 258° |
| 2026-05-06 20:41 | 34.31540 | 135.93358 | 18895 ft | 379 kts | 257° |
| 2026-05-06 20:41 | 34.30977 | 135.90254 | 18333 ft | 377 kts | 257° |
| 2026-05-06 20:41 | 34.30410 | 135.87126 | 17719 ft | 374 kts | 257° |
| 2026-05-06 20:41 | 34.29863 | 135.84115 | 17189 ft | 369 kts | 257° |
| 2026-05-06 20:42 | 34.29315 | 135.81098 | 16639 ft | 366 kts | 257° |
| 2026-05-06 20:42 | 34.28772 | 135.78112 | 16092 ft | 362 kts | 257° |
| 2026-05-06 20:42 | 34.28231 | 135.75148 | 15556 ft | 359 kts | 257° |
| 2026-05-06 20:42 | 34.27695 | 135.72207 | 14989 ft | 357 kts | 257° |
| 2026-05-06 20:43 | 34.27164 | 135.69303 | 14425 ft | 350 kts | 257° |
| 2026-05-06 20:43 | 34.26646 | 135.66474 | 13882 ft | 339 kts | 256° |
| 2026-05-06 20:43 | 34.26143 | 135.63738 | 13306 ft | 328 kts | 256° |
| 2026-05-06 20:43 | 34.25655 | 135.61098 | 12760 ft | 318 kts | 256° |
| 2026-05-06 20:44 | 34.25181 | 135.58519 | 12209 ft | 310 kts | 256° |
| 2026-05-06 20:44 | 34.24720 | 135.56016 | 11713 ft | 301 kts | 256° |
| 2026-05-06 20:44 | 34.24281 | 135.53630 | 11231 ft | 294 kts | 256° |
| 2026-05-06 20:44 | 34.23840 | 135.51244 | 10757 ft | 287 kts | 257° |
| 2026-05-06 20:45 | 34.23409 | 135.48918 | 10288 ft | 281 kts | 257° |
| 2026-05-06 20:45 | 34.22986 | 135.46636 | 9810 ft | 276 kts | 257° |
| 2026-05-06 20:45 | 34.22566 | 135.44371 | 9303 ft | 278 kts | 257° |
| 2026-05-06 20:45 | 34.22141 | 135.42078 | 8795 ft | 280 kts | 257° |
| 2026-05-06 20:46 | 34.21714 | 135.39778 | 8297 ft | 282 kts | 257° |
| 2026-05-06 20:46 | 34.21284 | 135.37465 | 7808 ft | 283 kts | 257° |
| 2026-05-06 20:46 | 34.20851 | 135.35141 | 7320 ft | 284 kts | 257° |
| 2026-05-06 20:46 | 34.20420 | 135.32820 | 6835 ft | 280 kts | 257° |
| 2026-05-06 20:47 | 34.19998 | 135.30559 | 6352 ft | 273 kts | 257° |
| 2026-05-06 20:47 | 34.19590 | 135.28376 | 5859 ft | 268 kts | 256° |
| 2026-05-06 20:47 | 34.19176 | 135.26164 | 5368 ft | 264 kts | 256° |
| 2026-05-06 20:47 | 34.18770 | 135.23998 | 4941 ft | 265 kts | 256° |
| 2026-05-06 20:48 | 34.18368 | 135.21854 | 4485 ft | 266 kts | 256° |
| 2026-05-06 20:48 | 34.17951 | 135.19641 | 4018 ft | 267 kts | 257° |
| 2026-05-06 20:48 | 34.17545 | 135.17479 | 3583 ft | 268 kts | 257° |
| 2026-05-06 20:48 | 34.17130 | 135.15283 | 3138 ft | 269 kts | 257° |
| 2026-05-06 20:49 | 34.16989 | 135.13053 | 2768 ft | 265 kts | 280° |
| 2026-05-06 20:49 | 34.17698 | 135.11067 | 2608 ft | 255 kts | 308° |
| 2026-05-06 20:49 | 34.18983 | 135.09674 | 2531 ft | 244 kts | 321° |
| 2026-05-06 20:49 | 34.20333 | 135.08380 | 2535 ft | 249 kts | 321° |
| 2026-05-06 20:50 | 34.21679 | 135.07081 | 2535 ft | 247 kts | 321° |
| 2026-05-06 20:50 | 34.23016 | 135.05781 | 2527 ft | 247 kts | 320° |
| 2026-05-06 20:50 | 34.24353 | 135.04476 | 2533 ft | 247 kts | 320° |
| 2026-05-06 20:50 | 34.25689 | 135.03169 | 2535 ft | 246 kts | 321° |
| 2026-05-06 20:51 | 34.27166 | 135.02291 | 2531 ft | 232 kts | 349° |
| 2026-05-06 20:51 | 34.28727 | 135.02473 | 2534 ft | 232 kts | 22° |
| 2026-05-06 20:51 | 34.30098 | 135.03470 | 2526 ft | 225 kts | 34° |
| 2026-05-06 20:51 | 34.31322 | 135.04541 | 2531 ft | 210 kts | 36° |
| 2026-05-06 20:52 | 34.32457 | 135.05549 | 2525 ft | 195 kts | 37° |
| 2026-05-06 20:52 | 34.33432 | 135.06629 | 2534 ft | 192 kts | 46° |
| 2026-05-06 20:52 | 34.34292 | 135.07804 | 2534 ft | 178 kts | 49° |
| 2026-05-06 20:52 | 34.35043 | 135.08917 | 2442 ft | 166 kts | 50° |
| 2026-05-06 20:53 | 34.35738 | 135.09956 | 2243 ft | 155 kts | 50° |
| 2026-05-06 20:53 | 34.36427 | 135.10987 | 2037 ft | 158 kts | 50° |
| 2026-05-06 20:53 | 34.37103 | 135.12000 | 1832 ft | 150 kts | 50° |
| 2026-05-06 20:53 | 34.37727 | 135.12936 | 1645 ft | 136 kts | 50° |
| 2026-05-06 20:54 | 34.38310 | 135.13809 | 1469 ft | 138 kts | 50° |
| 2026-05-06 20:54 | 34.38905 | 135.14701 | 1281 ft | 135 kts | 50° |
| 2026-05-06 20:54 | 34.39494 | 135.15582 | 1102 ft | 135 kts | 50° |
| 2026-05-06 20:54 | 34.40084 | 135.16466 | 920 ft | 134 kts | 50° |
| 2026-05-06 20:55 | 34.40668 | 135.17342 | 737 ft | 134 kts | 51° |
| 2026-05-06 20:55 | 34.41253 | 135.18218 | 567 ft | 134 kts | 51° |
| 2026-05-06 20:55 | 34.41841 | 135.19092 | 387 ft | 134 kts | 52° |
| 2026-05-06 20:55 | 34.42429 | 135.19969 | 202 ft | 134 kts | 53° |
| 2026-05-06 20:56 | 34.43014 | 135.20846 | 47 ft | 133 kts | 53° |
| 2026-05-06 20:56 | 34.43517 | 135.21599 | 32 ft | 77 kts | 51° |
| 2026-05-06 20:56 | 34.43717 | 135.21902 | 31 ft | 30 kts | 51° |
| 2026-05-06 20:56 | 34.43808 | 135.22093 | 31 ft | 22 kts | 72° |
| 2026-05-06 20:57 | 34.43841 | 135.22223 | 30 ft | 13 kts | 82° |
| 2026-05-06 20:57 | 34.43843 | 135.22345 | 28 ft | 15 kts | 109° |
| 2026-05-06 20:57 | 34.43813 | 135.22389 | 28 ft | 5 kts | 136° |
| 2026-05-06 20:57 | 34.43775 | 135.22428 | 28 ft | 9 kts | 140° |
| 2026-05-06 20:58 | 34.43718 | 135.22487 | 28 ft | 12 kts | 139° |
| 2026-05-06 20:58 | 34.43641 | 135.22557 | 28 ft | 15 kts | 143° |
| 2026-05-06 20:58 | 34.43549 | 135.22642 | 28 ft | 18 kts | 141° |
| 2026-05-06 20:58 | 34.43461 | 135.22729 | 28 ft | 20 kts | 141° |
| 2026-05-06 20:59 | 34.43347 | 135.22840 | 28 ft | 22 kts | 141° |
| 2026-05-06 20:59 | 34.43231 | 135.22955 | 29 ft | 21 kts | 141° |
| 2026-05-06 20:59 | 34.43107 | 135.23077 | 24 ft | 25 kts | 141° |
| 2026-05-06 20:59 | 34.42971 | 135.23208 | 24 ft | 24 kts | 141° |
| 2026-05-06 21:00 | 34.42933 | 135.23322 | 18 ft | 14 kts | 67° |
| 2026-05-06 21:00 | 34.42994 | 135.23423 | 18 ft | 16 kts | 52° |
| 2026-05-06 21:00 | 34.43000 | 135.23543 | 19 ft | 16 kts | 137° |
| 2026-05-06 21:00 | 34.42917 | 135.23627 | 20 ft | 16 kts | 141° |
| 2026-05-06 21:01 | 34.42832 | 135.23711 | 21 ft | 13 kts | 141° |
| 2026-05-06 21:01 | 34.42783 | 135.23785 | 19 ft | 11 kts | 98° |
| 2026-05-06 21:01 | 34.42816 | 135.23863 | 18 ft | 2 kts | 53° |
| 2026-05-06 21:01 | 34.42828 | 135.23883 | 18 ft | 5 kts | 53° |
| 2026-05-06 21:02 | 34.42857 | 135.23929 | 18 ft | 9 kts | 49° |
| 2026-05-06 21:02 | 34.42902 | 135.23993 | 19 ft | 11 kts | 50° |
| 2026-05-06 21:02 | 34.42940 | 135.24034 | 20 ft | 4 kts | 357° |
| 2026-05-06 21:02 | 34.42974 | 135.24007 | 19 ft | 7 kts | 321° |
| 2026-05-06 21:03 | 34.42989 | 135.23992 | 19 ft | 3 kts | 321° |
| 2026-05-06 21:03 | 34.42997 | 135.23984 | 19 ft | 3 kts | 321° |
| 2026-05-06 21:03 | 34.43005 | 135.23976 | 19 ft | 0 kts | 321° |
| 2026-05-06 21:03 | 34.43011 | 135.23971 | 20 ft | 0 kts | 321° |